createdAt,value
2022-12-26T07:43:32.047Z,0.00
2022-12-26T07:44:31.909Z,0.00
2022-12-26T07:45:31.921Z,0.00
2022-12-26T07:46:31.962Z,0.00
2022-12-26T07:47:31.791Z,0.00
2022-12-26T07:48:31.672Z,0.00
2022-12-26T07:49:31.437Z,0.00
2022-12-26T07:50:31.429Z,0.00
2022-12-26T07:51:31.310Z,0.00
2022-12-26T07:52:31.334Z,0.00
2022-12-26T07:53:31.316Z,0.00
2022-12-26T07:54:31.194Z,0.00
2022-12-26T07:55:31.194Z,0.00
2022-12-26T07:56:31.083Z,0.00
2022-12-26T07:57:48.139Z,0.00
2022-12-26T07:58:31.078Z,0.00
2022-12-26T07:59:31.227Z,0.00
2022-12-26T08:00:31.080Z,0.00
2022-12-26T08:01:31.196Z,0.00
2022-12-26T08:02:31.451Z,0.00
2022-12-26T08:03:30.908Z,0.00
2022-12-26T08:04:30.725Z,0.00
2022-12-26T08:05:31.568Z,0.00
2022-12-26T08:06:31.097Z,0.00
2022-12-26T08:07:30.607Z,0.00
2022-12-26T08:08:30.615Z,0.00
2022-12-26T08:09:30.490Z,0.00
2022-12-26T08:10:30.494Z,0.00
2022-12-26T08:11:30.492Z,0.00
2022-12-26T08:12:30.877Z,0.00
2022-12-26T08:13:30.383Z,0.00
2022-12-26T08:14:30.376Z,0.00
2022-12-26T08:15:30.737Z,0.00
2022-12-26T08:17:30.619Z,0.00
2022-12-26T08:18:30.260Z,0.00
2022-12-26T08:19:30.260Z,0.00
2022-12-26T08:20:30.266Z,0.00
2022-12-26T08:21:30.024Z,0.00
2022-12-26T08:22:29.904Z,0.00
2022-12-26T08:23:29.907Z,0.00
2022-12-26T08:24:29.903Z,0.00
2022-12-26T08:25:29.958Z,0.00
2022-12-26T08:26:30.388Z,0.00
2022-12-26T08:27:30.042Z,0.00
2022-12-26T08:28:29.917Z,0.00
2022-12-26T08:29:29.671Z,0.00
2022-12-26T08:30:29.552Z,0.00
2022-12-26T08:31:29.626Z,0.00
2022-12-26T08:32:29.491Z,0.00
2022-12-26T08:33:29.432Z,0.00
2022-12-26T08:34:29.436Z,5.63
2022-12-26T08:35:29.257Z,5.63
2022-12-26T08:36:29.250Z,5.63
2022-12-26T08:37:29.254Z,5.63
2022-12-26T08:38:31.872Z,5.63
2022-12-26T08:39:29.135Z,5.63
2022-12-26T08:40:42.623Z,0.00
2022-12-26T08:41:29.014Z,0.00
2022-12-26T08:42:29.016Z,5.63
2022-12-26T08:44:29.414Z,0.00
2022-12-26T08:45:28.898Z,0.00
2022-12-26T08:46:28.782Z,0.00
2022-12-26T08:47:28.795Z,0.00
2022-12-26T08:48:28.775Z,0.00
2022-12-26T08:49:28.663Z,0.00
2022-12-26T08:50:28.655Z,0.00
2022-12-26T08:51:28.537Z,0.00
2022-12-26T08:52:28.538Z,0.00
2022-12-26T08:54:11.961Z,0.00
2022-12-26T08:55:11.866Z,0.00
2022-12-26T08:56:11.741Z,0.00
2022-12-26T08:57:11.744Z,0.00
2022-12-26T08:58:11.772Z,0.00
2022-12-26T08:59:11.628Z,0.00
2022-12-26T09:00:11.617Z,0.00
2022-12-26T09:01:11.773Z,0.00
2022-12-26T09:02:11.690Z,0.00
2022-12-26T09:03:11.584Z,0.00
2022-12-26T09:04:11.486Z,0.00
2022-12-26T09:05:11.466Z,5.63
2022-12-26T09:06:11.384Z,5.63
2022-12-26T09:07:11.265Z,5.63
2022-12-26T09:08:11.263Z,11.25
2022-12-26T09:09:11.272Z,5.63
2022-12-26T09:10:11.154Z,5.63
2022-12-26T09:11:11.159Z,0.00
2022-12-26T09:12:11.030Z,5.63
2022-12-26T09:13:11.028Z,5.63
2022-12-26T09:14:11.030Z,5.63
2022-12-26T09:15:10.911Z,11.25
2022-12-26T09:16:10.908Z,11.25
2022-12-26T09:17:11.049Z,11.25
2022-12-26T09:18:10.796Z,5.63
2022-12-26T09:19:10.817Z,11.25
2022-12-26T09:20:10.792Z,11.25
2022-12-26T09:21:10.694Z,11.25
2022-12-26T09:22:10.676Z,11.25
2022-12-26T09:23:10.558Z,11.25
2022-12-26T09:24:10.559Z,11.25
2022-12-26T09:25:10.564Z,11.25
2022-12-26T09:26:10.445Z,11.25
2022-12-26T09:27:10.443Z,11.25
2022-12-26T09:28:10.439Z,11.25
2022-12-26T09:29:10.329Z,11.25
2022-12-26T09:30:10.327Z,11.25
2022-12-26T09:31:10.335Z,11.25
2022-12-26T09:32:10.211Z,11.25
2022-12-26T09:33:10.217Z,16.88
2022-12-26T09:34:10.092Z,16.88
2022-12-26T09:35:10.113Z,16.88
2022-12-26T09:36:14.462Z,22.50
2022-12-26T09:37:09.973Z,28.13
2022-12-26T09:38:09.973Z,22.50
2022-12-26T09:39:09.944Z,28.13
2022-12-26T09:40:09.856Z,28.13
2022-12-26T09:41:09.863Z,22.50
2022-12-26T09:42:09.761Z,28.13
2022-12-26T09:43:09.739Z,22.50
2022-12-26T09:44:09.734Z,28.13
2022-12-26T09:45:09.625Z,28.13
2022-12-26T09:46:09.641Z,22.50
2022-12-26T09:47:09.620Z,22.50
2022-12-26T09:51:47.345Z,28.13
2022-12-26T09:52:47.411Z,28.13
2022-12-26T09:53:47.305Z,28.13
2022-12-26T09:54:47.284Z,28.13
2022-12-26T09:55:47.188Z,28.13
2022-12-26T09:57:03.978Z,28.13
2022-12-26T09:57:47.160Z,28.13
2022-12-26T09:58:47.164Z,28.13
2022-12-26T09:59:47.042Z,28.13
2022-12-26T10:00:47.043Z,33.75
2022-12-26T10:01:47.134Z,28.13
2022-12-26T10:02:47.051Z,28.13
2022-12-26T10:03:46.931Z,28.13
2022-12-26T10:04:46.885Z,33.75
2022-12-26T10:05:46.807Z,33.75
2022-12-26T10:06:46.811Z,33.75
2022-12-26T10:07:46.724Z,33.75
2022-12-26T10:08:46.692Z,39.38
2022-12-26T10:09:46.695Z,33.75
2022-12-26T10:10:46.579Z,33.75
2022-12-26T10:11:46.575Z,33.75
2022-12-26T10:12:46.579Z,33.75
2022-12-26T10:13:46.459Z,28.13
2022-12-26T10:14:46.463Z,28.13
2022-12-26T10:15:46.411Z,28.13
2022-12-26T10:16:46.340Z,28.13
2022-12-26T10:17:46.344Z,22.50
2022-12-26T10:18:46.223Z,22.50
2022-12-26T10:19:46.229Z,16.88
2022-12-26T10:20:46.229Z,22.50
2022-12-26T10:21:46.107Z,22.50
2022-12-26T10:22:46.110Z,28.13
2022-12-26T10:23:46.011Z,28.13
2022-12-26T10:24:46.107Z,28.13
2022-12-26T10:25:46.111Z,22.50
2022-12-26T10:26:46.109Z,28.13
2022-12-26T10:27:45.997Z,28.13
2022-12-26T10:28:45.995Z,28.13
2022-12-26T10:29:46.004Z,28.13
2022-12-26T10:30:45.913Z,28.13
2022-12-26T10:31:45.876Z,28.13
2022-12-26T10:32:45.757Z,28.13
2022-12-26T10:33:45.525Z,28.13
2022-12-26T10:34:45.546Z,33.75
2022-12-26T10:35:45.528Z,33.75
2022-12-26T10:36:45.410Z,28.13
2022-12-26T10:37:45.407Z,28.13
2022-12-26T10:38:45.285Z,28.13
2022-12-26T10:39:45.310Z,33.75
2022-12-26T10:40:45.287Z,28.13
2022-12-26T10:41:45.174Z,22.50
2022-12-26T10:42:45.167Z,22.50
2022-12-26T10:43:45.180Z,16.88
2022-12-26T10:44:45.053Z,16.88
2022-12-26T10:45:45.052Z,11.25
2022-12-26T10:46:44.978Z,11.25
2022-12-26T10:47:44.933Z,5.63
2022-12-26T10:48:44.940Z,5.63
2022-12-26T10:49:44.816Z,5.63
2022-12-26T10:50:44.820Z,5.63
2022-12-26T10:51:44.821Z,11.25
2022-12-26T10:52:44.704Z,11.25
2022-12-26T10:53:44.705Z,11.25
2022-12-26T10:54:44.599Z,11.25
2022-12-26T10:55:44.603Z,11.25
2022-12-26T10:56:44.584Z,11.25
2022-12-26T10:57:44.467Z,11.25
2022-12-26T10:58:44.467Z,11.25
2022-12-26T10:59:44.566Z,11.25
2022-12-26T11:00:44.352Z,5.63
2022-12-26T11:01:44.528Z,5.63
2022-12-26T11:02:44.489Z,11.25
2022-12-26T11:03:44.272Z,16.88
2022-12-26T11:05:13.146Z,16.88
2022-12-26T11:06:44.118Z,16.88
2022-12-26T11:07:44.115Z,16.88
2022-12-26T11:08:44.328Z,16.88
2022-12-26T11:09:44.015Z,16.88
2022-12-26T11:10:43.877Z,16.88
2022-12-26T11:11:43.876Z,22.50
2022-12-26T11:12:43.885Z,28.13
2022-12-26T11:13:43.757Z,33.75
2022-12-26T11:14:43.759Z,28.13
2022-12-26T11:15:43.792Z,22.50
2022-12-26T11:16:43.645Z,22.50
2022-12-26T11:17:43.645Z,16.88
2022-12-26T11:18:43.642Z,16.88
2022-12-26T11:19:43.528Z,16.88
2022-12-26T11:20:43.528Z,16.88
2022-12-26T11:21:43.348Z,16.88
2022-12-26T11:22:43.355Z,11.25
2022-12-26T11:23:43.343Z,11.25
2022-12-26T11:24:43.225Z,5.63
2022-12-26T11:25:43.228Z,5.63
2022-12-26T11:26:43.229Z,5.63
2022-12-26T11:27:43.236Z,5.63
2022-12-26T11:30:09.998Z,11.25
2022-12-26T11:31:09.880Z,5.63
2022-12-26T11:32:09.864Z,5.63
2022-12-26T11:33:14.035Z,5.63
2022-12-26T11:34:09.866Z,5.63
2022-12-26T11:35:09.748Z,5.63
2022-12-26T11:36:09.640Z,5.63
2022-12-26T11:37:09.627Z,5.63
2022-12-26T11:38:09.623Z,5.63
2022-12-26T11:39:09.506Z,5.63
2022-12-26T11:40:09.505Z,5.63
2022-12-26T11:41:09.507Z,5.63
2022-12-26T11:42:09.386Z,5.63
2022-12-26T11:43:09.415Z,5.63
2022-12-26T11:44:09.391Z,5.63
2022-12-26T11:45:09.271Z,5.63
2022-12-26T11:46:09.304Z,5.63
2022-12-26T11:47:09.153Z,5.63
2022-12-26T11:48:09.149Z,5.63
2022-12-26T11:49:09.157Z,5.63
2022-12-26T11:50:09.030Z,11.25
2022-12-26T11:51:09.039Z,16.88
2022-12-26T11:52:08.912Z,22.50
2022-12-26T11:53:08.918Z,22.50
2022-12-26T11:54:08.919Z,33.75
2022-12-26T11:55:08.798Z,33.75
2022-12-26T11:56:08.801Z,33.75
2022-12-26T11:57:08.803Z,39.38
2022-12-26T11:58:08.737Z,39.38
2022-12-26T12:00:08.703Z,33.75
2022-12-26T12:01:08.594Z,28.13
2022-12-26T12:02:08.975Z,22.50
2022-12-26T12:03:08.513Z,22.50
2022-12-26T12:04:08.446Z,16.88
2022-12-26T12:05:08.448Z,16.88
2022-12-26T12:06:08.329Z,22.50
2022-12-26T12:07:08.332Z,22.50
2022-12-26T12:08:08.324Z,16.88
2022-12-26T12:09:08.210Z,22.50
2022-12-26T12:10:08.217Z,28.13
2022-12-26T12:11:08.197Z,22.50
2022-12-26T12:12:08.100Z,22.50
2022-12-26T12:13:08.095Z,22.50
2022-12-26T12:14:08.061Z,28.13
2022-12-26T12:15:07.980Z,39.38
2022-12-26T12:16:08.040Z,45.00
2022-12-26T12:17:07.859Z,39.38
2022-12-26T19:00:02.271Z,0.00
2022-12-26T19:01:02.090Z,0.00
2022-12-26T19:02:02.080Z,0.00
2022-12-26T19:03:01.880Z,0.00
2022-12-26T19:04:01.928Z,0.00
2022-12-26T19:05:01.767Z,0.00
2022-12-26T19:06:01.767Z,0.00
2022-12-26T19:07:01.768Z,0.00
2022-12-26T19:08:01.666Z,0.00
2022-12-26T19:09:01.768Z,0.00
2022-12-26T19:10:01.581Z,0.00
2022-12-26T19:11:01.531Z,0.00
2022-12-26T19:12:01.432Z,0.00
2022-12-26T19:13:05.278Z,0.00
2022-12-26T19:14:01.416Z,0.00
2022-12-26T19:15:01.296Z,0.00
2022-12-26T19:16:01.386Z,0.00
2022-12-26T19:17:01.175Z,0.00
2022-12-26T19:18:01.178Z,0.00
2022-12-26T19:19:01.062Z,0.00
2022-12-26T19:20:01.061Z,0.00
2022-12-26T19:21:01.058Z,0.00
2022-12-26T19:22:00.937Z,0.00
2022-12-26T19:23:00.950Z,0.00
2022-12-26T19:24:00.823Z,0.00
2022-12-26T19:25:00.827Z,0.00
2022-12-26T19:26:00.828Z,0.00
2022-12-26T19:27:00.703Z,0.00
2022-12-26T19:28:00.703Z,0.00
2022-12-26T19:29:00.589Z,0.00
2022-12-26T19:30:00.594Z,0.00
2022-12-26T19:31:00.592Z,0.00
2022-12-26T19:32:00.561Z,0.00
2022-12-26T19:33:00.408Z,0.00
2022-12-26T19:34:00.282Z,0.00
2022-12-26T19:35:00.288Z,0.00
2022-12-26T19:36:00.285Z,0.00
2022-12-26T19:37:00.167Z,0.00
2022-12-26T19:38:00.161Z,0.00
2022-12-26T19:39:00.044Z,0.00
2022-12-26T19:40:00.067Z,0.00
2022-12-26T19:41:00.058Z,0.00
2022-12-26T19:41:59.927Z,0.00
2022-12-26T19:42:59.925Z,0.00
2022-12-26T19:43:59.819Z,0.00
2022-12-26T19:44:59.809Z,0.00
2022-12-26T19:45:59.899Z,0.00
2022-12-26T19:47:11.402Z,0.00
2022-12-26T19:47:59.717Z,0.00
2022-12-26T19:48:59.570Z,0.00
2022-12-26T19:49:59.570Z,0.00
2022-12-26T19:50:59.547Z,0.00
2022-12-26T19:51:59.452Z,0.00
2022-12-26T19:52:59.451Z,0.00
2022-12-26T19:53:59.331Z,0.00
2022-12-26T19:54:59.333Z,0.00
2022-12-26T19:55:59.307Z,0.00
2022-12-26T19:56:59.218Z,0.00
2022-12-26T19:57:59.214Z,0.00
2022-12-26T19:58:59.098Z,0.00
2022-12-26T19:59:59.105Z,0.00
2022-12-26T20:00:59.097Z,0.00
2022-12-26T20:01:59.275Z,0.00
2022-12-26T20:02:59.068Z,0.00
2022-12-26T20:03:58.876Z,0.00
2022-12-26T20:04:59.336Z,0.00
2022-12-26T20:05:58.863Z,0.00
2022-12-26T20:06:58.742Z,0.00
2022-12-26T20:07:58.740Z,0.00
2022-12-26T20:08:58.630Z,0.00
2022-12-26T20:09:58.624Z,0.00
2022-12-26T20:11:00.947Z,0.00
2022-12-26T20:11:58.512Z,0.00
2022-12-26T20:12:58.507Z,0.00
2022-12-26T20:13:58.390Z,0.00
2022-12-26T20:14:58.410Z,0.00
2022-12-26T20:15:58.504Z,0.00
2022-12-26T20:17:07.526Z,0.00
2022-12-26T20:17:58.372Z,0.00
2022-12-26T20:18:58.535Z,0.00
2022-12-26T20:19:58.170Z,0.00
2022-12-26T20:20:58.415Z,0.00
2022-12-26T20:21:58.036Z,0.00
2022-12-26T20:22:58.384Z,0.00
2022-12-26T20:23:58.009Z,0.00
2022-12-26T20:24:58.147Z,0.00
2022-12-26T20:25:57.914Z,0.00
2022-12-26T20:26:58.399Z,0.00
2022-12-26T20:27:58.253Z,0.00
2022-12-26T20:28:57.914Z,0.00
2022-12-26T20:29:57.938Z,0.00
2022-12-26T20:30:58.232Z,0.00
2022-12-26T20:31:57.571Z,0.00
2022-12-26T20:32:57.904Z,0.00
2022-12-26T20:33:57.447Z,0.00
2022-12-26T20:34:57.781Z,0.00
2022-12-26T20:35:57.482Z,0.00
2022-12-26T20:36:57.559Z,0.00
2022-12-26T20:37:57.333Z,0.00
2022-12-26T20:38:57.570Z,0.00
2022-12-26T20:39:57.215Z,0.00
2022-12-26T20:40:57.800Z,0.00
2022-12-26T20:41:57.097Z,0.00
2022-12-26T20:42:57.313Z,0.00
2022-12-26T20:43:56.980Z,0.00
2022-12-26T20:44:57.797Z,0.00
2022-12-26T20:45:59.773Z,0.00
2022-12-26T20:46:57.435Z,0.00
2022-12-26T20:47:57.070Z,0.00
2022-12-26T20:48:56.982Z,0.00
2022-12-26T20:49:57.216Z,0.00
2022-12-26T20:50:56.862Z,0.00
2022-12-26T20:51:56.736Z,0.00
2022-12-26T20:52:57.205Z,0.00
2022-12-26T20:53:56.597Z,0.00
2022-12-26T20:54:56.856Z,0.00
2022-12-26T20:55:56.597Z,0.00
2022-12-26T20:56:56.745Z,0.00
2022-12-26T20:57:56.480Z,0.00
2022-12-26T20:58:56.721Z,0.00
2022-12-26T20:59:56.727Z,0.00
2022-12-26T21:00:56.996Z,0.00
2022-12-26T21:01:56.347Z,0.00
2022-12-26T21:02:57.334Z,0.00
2022-12-26T21:03:56.255Z,0.00
2022-12-26T21:04:56.391Z,0.00
2022-12-26T21:05:56.128Z,0.00
2022-12-26T21:06:56.614Z,0.00
2022-12-26T21:07:56.522Z,0.00
2022-12-26T21:08:56.658Z,0.00
2022-12-26T21:09:55.891Z,0.00
2022-12-26T21:10:56.023Z,0.00
2022-12-26T21:11:55.776Z,0.00
2022-12-26T21:12:55.773Z,0.00
2022-12-26T21:13:55.780Z,0.00
2022-12-26T21:14:55.897Z,0.00
2022-12-26T21:15:55.664Z,0.00
2022-12-26T21:16:56.204Z,0.00
2022-12-26T21:17:55.781Z,0.00
2022-12-26T21:18:55.789Z,0.00
2022-12-26T21:19:55.549Z,0.00
2022-12-26T21:20:55.903Z,0.00
2022-12-26T21:21:55.542Z,0.00
2022-12-26T21:22:56.146Z,0.00
2022-12-26T21:23:55.457Z,0.00
2022-12-26T21:24:55.549Z,0.00
2022-12-26T21:25:55.310Z,0.00
2022-12-26T21:26:55.320Z,0.00
2022-12-26T21:27:59.140Z,0.00
2022-12-26T21:28:55.198Z,0.00
2022-12-26T21:29:55.195Z,0.00
2022-12-26T21:30:55.111Z,0.00
2022-12-26T21:31:55.192Z,0.00
2022-12-26T21:32:55.436Z,0.00
2022-12-26T21:33:55.081Z,0.00
2022-12-26T21:34:54.717Z,0.00
2022-12-26T21:35:55.559Z,0.00
2022-12-26T21:36:54.599Z,0.00
2022-12-26T21:37:54.963Z,0.00
2022-12-26T21:38:54.482Z,0.00
2022-12-26T21:39:54.745Z,0.00
2022-12-26T21:40:54.602Z,0.00
2022-12-26T21:41:54.604Z,0.00
2022-12-26T21:42:54.248Z,0.00
2022-12-26T21:43:54.970Z,0.00
2022-12-26T21:44:54.246Z,0.00
2022-12-26T21:46:00.825Z,0.00
2022-12-26T21:46:54.181Z,0.00
2022-12-26T21:47:54.495Z,0.00
2022-12-26T21:48:54.018Z,0.00
2022-12-26T21:49:54.491Z,0.00
2022-12-26T21:50:53.896Z,0.00
2022-12-26T21:51:55.223Z,0.00
2022-12-26T21:52:53.777Z,0.00
2022-12-26T21:53:54.192Z,0.00
2022-12-26T21:54:53.781Z,0.00
2022-12-26T21:55:54.375Z,0.00
2022-12-26T21:56:53.659Z,0.00
2022-12-26T21:57:54.026Z,0.00
2022-12-26T21:58:53.553Z,0.00
2022-12-26T21:59:53.905Z,0.00
2022-12-26T22:00:53.426Z,0.00
2022-12-26T22:01:54.057Z,0.00
2022-12-26T22:02:53.967Z,0.00
2022-12-26T22:03:54.386Z,0.00
2022-12-26T22:04:53.308Z,0.00
2022-12-26T22:05:53.684Z,0.00
2022-12-26T22:06:53.192Z,0.00
2022-12-26T22:07:53.547Z,0.00
2022-12-26T22:08:53.074Z,0.00
2022-12-26T22:09:53.313Z,0.00
2022-12-26T22:10:52.950Z,0.00
2022-12-26T22:11:52.982Z,0.00
2022-12-26T22:12:53.324Z,0.00
2022-12-26T22:13:52.772Z,0.00
2022-12-26T22:14:53.079Z,0.00
2022-12-26T22:15:52.729Z,0.00
2022-12-26T22:17:52.536Z,0.00
2022-12-26T22:18:52.605Z,0.00
2022-12-26T22:19:52.487Z,0.00
2022-12-26T22:20:52.843Z,0.00
2022-12-26T22:21:52.419Z,0.00
2022-12-26T22:22:52.652Z,0.00
2022-12-26T22:23:52.294Z,0.00
2022-12-26T22:24:52.649Z,0.00
2022-12-26T22:25:52.179Z,0.00
2022-12-26T22:26:52.632Z,0.00
2022-12-26T22:27:52.083Z,0.00
2022-12-26T22:28:52.066Z,0.00
2022-12-26T22:29:52.033Z,0.00
2022-12-26T22:30:52.316Z,0.00
2022-12-26T22:31:52.178Z,0.00
2022-12-26T22:32:51.819Z,0.00
2022-12-26T22:33:51.822Z,0.00
2022-12-26T22:34:52.185Z,0.00
2022-12-26T22:35:51.701Z,0.00
2022-12-26T22:36:52.064Z,0.00
2022-12-26T22:37:51.584Z,0.00
2022-12-26T22:38:52.540Z,0.00
2022-12-26T22:39:51.464Z,0.00
2022-12-26T22:40:51.783Z,0.00
2022-12-26T22:41:51.931Z,0.00
2022-12-26T22:42:51.907Z,0.00
2022-12-26T22:43:51.381Z,0.00
2022-12-26T22:44:51.708Z,0.00
2022-12-26T22:45:51.224Z,0.00
2022-12-26T22:46:51.603Z,0.00
2022-12-26T22:47:51.108Z,0.00
2022-12-26T22:48:51.143Z,0.00
2022-12-26T22:49:50.997Z,0.00
2022-12-26T22:50:51.241Z,0.00
2022-12-26T22:51:50.992Z,0.00
2022-12-26T22:52:50.872Z,0.00
2022-12-26T22:53:50.873Z,0.00
2022-12-26T22:54:50.848Z,0.00
2022-12-26T22:55:50.753Z,0.00
2022-12-26T22:56:50.762Z,0.00
2022-12-26T22:57:52.648Z,0.00
